Time;durP1;ratioP1;P1;durP2;ratioP2;P2;SDS_P1;SDS_P2;PMS_P1;PMS_P2;Temp;Humidity;BMP_temperature;BMP_pressure;BME280_temperature;BME280_humidity;BME280_pressure;Samples;Min_cycle;Max_cycle;Signal;HPM_P1;HPM_P2
2024/04/11 00:01:05;;;;;;;1.45;0.50;;;11.80;69.30;;;;;;5063027;28;20037;-74
2024/04/11 00:03:34;;;;;;;1.15;0.52;;;11.90;69.40;;;;;;5095846;28;20058;-74
2024/04/11 00:06:00;;;;;;;0.30;0.30;;;11.80;69.40;;;;;;5096266;28;20485;-75
2024/04/11 00:08:26;;;;;;;0.55;0.40;;;11.80;69.40;;;;;;5096371;28;20397;-75
2024/04/11 00:10:52;;;;;;;1.45;0.40;;;11.90;69.50;;;;;;5095948;28;20126;-75
2024/04/11 00:13:18;;;;;;;1.80;0.50;;;11.90;69.50;;;;;;5114105;28;20127;-76
2024/04/11 00:15:45;;;;;;;0.50;0.40;;;11.90;69.60;;;;;;5095951;28;20082;-74
2024/04/11 00:18:11;;;;;;;0.40;0.40;;;11.90;70.30;;;;;;5114530;28;20053;-75
2024/04/11 00:20:37;;;;;;;0.40;0.30;;;11.90;69.60;;;;;;5095281;28;20039;-74
2024/04/11 00:23:03;;;;;;;1.42;0.47;;;11.90;69.60;;;;;;5078755;28;20039;-75
2024/04/11 00:25:28;;;;;;;0.40;0.30;;;11.90;69.70;;;;;;5078787;28;20031;-75
2024/04/11 00:27:54;;;;;;;1.02;0.50;;;11.90;69.70;;;;;;5078813;28;20043;-75
2024/04/11 00:30:20;;;;;;;1.25;0.43;;;11.90;69.70;;;;;;5096228;28;20039;-75
2024/04/11 00:32:48;;;;;;;1.20;0.40;;;11.90;69.70;;;;;;5095830;28;20047;-74
2024/04/11 00:35:17;;;;;;;1.40;0.40;;;11.90;69.70;;;;;;5114333;28;20044;-74
2024/04/11 00:37:43;;;;;;;0.38;0.38;;;11.90;69.70;;;;;;5062698;28;20044;-75
2024/04/11 00:40:09;;;;;;;1.70;0.50;;;11.90;69.70;;;;;;5062624;28;20393;-75
2024/04/11 00:42:35;;;;;;;1.45;0.40;;;12.00;69.70;;;;;;5113762;28;20039;-76
2024/04/11 00:45:01;;;;;;;1.20;0.50;;;11.90;69.50;;;;;;5095451;28;20038;-77
2024/04/11 00:47:28;;;;;;;0.93;0.57;;;12.00;69.60;;;;;;5095503;28;20043;-75
2024/04/11 00:49:55;;;;;;;0.65;0.50;;;12.00;69.60;;;;;;5113441;28;20032;-76
2024/04/11 00:52:21;;;;;;;0.55;0.30;;;12.00;69.70;;;;;;5078080;28;20047;-77
2024/04/11 00:54:48;;;;;;;0.85;0.40;;;12.00;69.70;;;;;;5095319;28;20091;-75
2024/04/11 00:57:15;;;;;;;1.70;0.57;;;12.00;69.70;;;;;;5113648;28;20035;-76
2024/04/11 00:59:41;;;;;;;1.13;0.52;;;12.00;69.70;;;;;;5095210;28;20088;-76
2024/04/11 01:02:08;;;;;;;0.40;0.40;;;12.00;69.80;;;;;;5095294;28;20032;-75
2024/04/11 01:04:34;;;;;;;0.85;0.50;;;12.00;69.80;;;;;;5113453;28;20401;-75
2024/04/11 01:07:07;;;;;;;2.40;0.50;;;12.00;69.80;;;;;;5095104;28;20034;-76
2024/04/11 01:09:39;;;;;;;0.88;0.30;;;12.00;69.80;;;;;;5078510;28;20515;-76
2024/04/11 01:12:07;;;;;;;0.75;0.40;;;12.20;69.90;;;;;;5095719;28;20039;-76
2024/04/11 01:14:33;;;;;;;0.45;0.40;;;12.00;69.80;;;;;;5078810;28;20088;-75
2024/04/11 01:16:59;;;;;;;0.40;0.32;;;12.00;69.80;;;;;;5113470;28;20108;-76
2024/04/11 01:19:25;;;;;;;1.48;0.45;;;12.00;69.80;;;;;;5094790;28;20047;-75
2024/04/11 01:21:51;;;;;;;0.32;0.32;;;12.10;69.90;;;;;;5112938;28;20036;-76
2024/04/11 01:24:17;;;;;;;0.70;0.35;;;12.10;69.80;;;;;;5113076;28;20547;-76
2024/04/11 01:26:43;;;;;;;0.82;0.38;;;12.00;69.80;;;;;;5113351;28;20519;-76
2024/04/11 01:29:10;;;;;;;0.30;0.28;;;12.20;70.00;;;;;;5113194;28;20039;-76
2024/04/11 01:31:38;;;;;;;2.85;0.40;;;12.20;70.00;;;;;;5112025;27;20504;-76
2024/04/11 01:34:04;;;;;;;0.25;0.25;;;12.10;69.80;;;;;;5078273;28;20047;-76
2024/04/11 01:36:31;;;;;;;1.42;0.60;;;12.10;69.80;;;;;;5095081;28;20105;-76
2024/04/11 01:38:57;;;;;;;2.20;0.30;;;12.20;69.90;;;;;;5094693;28;20077;-76
2024/04/11 01:41:24;;;;;;;0.73;0.50;;;12.10;69.80;;;;;;5077906;28;20050;-76
2024/04/11 01:43:50;;;;;;;0.77;0.40;;;12.20;69.80;;;;;;5077905;28;20399;-76
2024/04/11 01:46:18;;;;;;;1.20;0.40;;;12.20;69.80;;;;;;5094875;28;20142;-76
2024/04/11 01:48:44;;;;;;;0.35;0.35;;;12.20;69.70;;;;;;5094564;28;20142;-75
2024/04/11 01:51:11;;;;;;;0.57;0.40;;;12.20;69.70;;;;;;5094371;28;20124;-76
2024/04/11 01:53:37;;;;;;;1.20;0.50;;;12.20;69.70;;;;;;5112801;28;20039;-76
2024/04/11 01:56:04;;;;;;;0.50;0.40;;;12.20;69.70;;;;;;5112609;28;20378;-76
2024/04/11 01:58:30;;;;;;;0.25;0.25;;;12.20;69.70;;;;;;5094199;28;20084;-76
2024/04/11 02:01:09;;;;;;;0.93;0.40;;;12.20;69.70;;;;;;5077313;28;20501;-75
2024/04/11 02:03:38;;;;;;;0.73;0.30;;;12.30;69.80;;;;;;5094477;28;20043;-76
2024/04/11 02:06:07;;;;;;;0.35;0.32;;;12.20;69.70;;;;;;5112402;28;20067;-76
2024/04/11 02:08:35;;;;;;;1.10;0.57;;;12.30;69.70;;;;;;5112461;28;20043;-77
2024/04/11 02:11:00;;;;;;;0.65;0.40;;;12.30;69.70;;;;;;5077471;28;20057;-75
2024/04/11 02:13:26;;;;;;;1.98;0.40;;;12.30;69.80;;;;;;5077260;28;20122;-76
2024/04/11 02:15:54;;;;;;;0.70;0.47;;;12.30;69.70;;;;;;5094098;28;20466;-76
2024/04/11 02:18:20;;;;;;;0.30;0.30;;;12.40;69.70;;;;;;5094046;28;20043;-76
2024/04/11 02:20:47;;;;;;;1.80;0.63;;;12.40;70.40;;;;;;5094058;28;20540;-75
2024/04/11 02:23:14;;;;;;;0.40;0.40;;;12.40;69.70;;;;;;5112353;28;20043;-77
2024/04/11 02:25:40;;;;;;;2.22;0.70;;;12.50;69.80;;;;;;5112591;28;20047;-76
2024/04/11 02:28:06;;;;;;;4.85;0.60;;;12.40;69.70;;;;;;5112467;28;20485;-77
2024/04/11 02:30:32;;;;;;;1.27;0.40;;;12.40;69.70;;;;;;5093822;28;20122;-75
2024/04/11 02:32:58;;;;;;;0.57;0.40;;;12.40;69.70;;;;;;5094373;28;20061;-76
2024/04/11 02:35:24;;;;;;;0.50;0.50;;;12.40;69.70;;;;;;5112163;28;20493;-76
2024/04/11 02:37:52;;;;;;;0.88;0.60;;;12.40;69.60;;;;;;5093694;28;20088;-76
2024/04/11 02:40:18;;;;;;;2.25;0.50;;;12.40;69.60;;;;;;5094547;28;20072;-76
2024/04/11 02:42:44;;;;;;;0.40;0.30;;;12.50;69.60;;;;;;5113780;28;20122;-76
2024/04/11 02:45:12;;;;;;;1.10;0.40;;;12.40;69.60;;;;;;5115683;28;20043;-76
2024/04/11 02:47:38;;;;;;;0.40;0.40;;;12.40;69.70;;;;;;5115752;28;20036;-76
2024/04/11 02:50:06;;;;;;;0.98;0.40;;;12.40;69.70;;;;;;5097343;28;20048;-76
2024/04/11 02:52:33;;;;;;;0.55;0.32;;;12.40;69.70;;;;;;5097290;28;20031;-76
2024/04/11 02:54:58;;;;;;;0.95;0.40;;;12.40;69.80;;;;;;5097381;28;20046;-76
2024/04/11 02:57:24;;;;;;;0.47;0.30;;;12.40;69.80;;;;;;5097483;28;20040;-76
2024/04/11 02:59:53;;;;;;;0.38;0.32;;;12.50;69.90;;;;;;5096994;28;20130;-76
2024/04/11 03:02:23;;;;;;;1.33;0.50;;;12.40;70.50;;;;;;5080307;28;20062;-76
2024/04/11 03:04:51;;;;;;;1.65;0.45;;;12.40;69.90;;;;;;5115106;28;20506;-76
2024/04/11 03:07:19;;;;;;;0.60;0.38;;;12.40;69.90;;;;;;5097698;28;20118;-76
2024/04/11 03:09:44;;;;;;;0.55;0.30;;;12.40;69.90;;;;;;5115504;28;20043;-76
2024/04/11 03:12:10;;;;;;;0.40;0.35;;;12.40;70.00;;;;;;5097442;28;20046;-76
2024/04/11 03:14:38;;;;;;;0.80;0.38;;;12.40;70.00;;;;;;5079914;28;20035;-75
2024/04/11 03:17:04;;;;;;;0.77;0.30;;;12.40;70.00;;;;;;5096911;28;20136;-76
2024/04/11 03:19:31;;;;;;;0.98;0.40;;;12.40;69.90;;;;;;5097142;28;20520;-77
2024/04/11 03:21:57;;;;;;;0.70;0.20;;;12.40;69.90;;;;;;5096846;28;20534;-76
2024/04/11 03:24:22;;;;;;;1.77;0.40;;;12.40;69.90;;;;;;5079879;28;20052;-77
2024/04/11 03:26:48;;;;;;;1.02;0.47;;;12.40;70.00;;;;;;5096930;28;20080;-76
2024/04/11 03:29:15;;;;;;;0.55;0.40;;;12.40;70.00;;;;;;5097207;28;20042;-77
2024/04/11 03:31:42;;;;;;;0.65;0.40;;;12.40;70.00;;;;;;5115000;28;20039;-77
2024/04/11 03:34:08;;;;;;;0.77;0.40;;;12.40;70.00;;;;;;5096681;28;20043;-76
2024/04/11 03:36:34;;;;;;;0.35;0.35;;;12.40;70.10;;;;;;5096488;28;20477;-77
2024/04/11 03:39:00;;;;;;;0.45;0.30;;;12.40;70.10;;;;;;5079543;28;20134;-77
2024/04/11 03:41:26;;;;;;;0.63;0.30;;;12.40;70.10;;;;;;5096187;28;20075;-76
2024/04/11 03:43:55;;;;;;;1.35;0.47;;;12.40;70.10;;;;;;5079823;28;20043;-76
2024/04/11 03:46:23;;;;;;;0.82;0.45;;;12.40;70.10;;;;;;5114658;28;20401;-76
2024/04/11 03:48:53;;;;;;;0.93;0.60;;;12.40;70.00;;;;;;5095156;28;20126;-76
2024/04/11 03:51:21;;;;;;;4.05;0.40;;;12.40;70.00;;;;;;5078499;28;20396;-76
2024/04/11 03:53:50;;;;;;;1.20;0.50;;;12.40;70.10;;;;;;5095488;28;20039;-76
2024/04/11 03:56:18;;;;;;;1.05;0.40;;;12.30;70.10;;;;;;5063976;28;20067;-75
2024/04/11 03:58:45;;;;;;;0.70;0.43;;;12.40;70.10;;;;;;5079151;28;20088;-75
2024/04/11 04:01:12;;;;;;;0.50;0.50;;;12.40;70.10;;;;;;5114416;28;20054;-75
2024/04/11 04:03:40;;;;;;;0.35;0.30;;;12.40;70.10;;;;;;5114458;28;20042;-75
2024/04/11 04:06:06;;;;;;;0.55;0.50;;;12.40;70.10;;;;;;5096204;28;20036;-75
2024/04/11 04:08:33;;;;;;;0.57;0.40;;;12.40;70.20;;;;;;5096752;28;20130;-76
2024/04/11 04:10:59;;;;;;;1.40;0.47;;;12.40;70.20;;;;;;5096285;28;20074;-75
2024/04/11 04:13:26;;;;;;;0.77;0.30;;;12.40;70.20;;;;;;5079512;28;20115;-76
2024/04/11 04:15:54;;;;;;;0.55;0.45;;;12.40;70.20;;;;;;5096524;28;20039;-75
2024/04/11 04:18:21;;;;;;;1.80;0.50;;;12.40;70.20;;;;;;5079745;28;20040;-75
2024/04/11 04:20:54;;;;;;;0.82;0.28;;;12.40;70.30;;;;;;5114631;28;20047;-75
2024/04/11 04:23:22;;;;;;;1.30;0.50;;;12.40;70.30;;;;;;5079044;28;20458;-76
2024/04/11 04:26:05;;;;;;;1.98;0.50;;;12.40;70.30;;;;;;5114436;28;20501;-75
2024/04/11 04:28:32;;;;;;;1.52;0.50;;;12.40;70.30;;;;;;5079654;28;20138;-77
2024/04/11 04:31:22;;;;;;;0.50;0.40;;;12.30;70.30;;;;;;5095832;28;20123;-75
2024/04/11 04:33:50;;;;;;;0.80;0.43;;;12.30;70.40;;;;;;5114373;28;20100;-75
2024/04/11 04:36:20;;;;;;;0.88;0.30;;;12.40;70.40;;;;;;5114221;28;20112;-76
2024/04/11 04:38:49;;;;;;;2.75;0.40;;;12.40;70.40;;;;;;5096079;28;20035;-75
2024/04/11 04:41:17;;;;;;;2.78;0.50;;;12.30;70.40;;;;;;5079287;28;20040;-75
2024/04/11 04:43:44;;;;;;;0.80;0.32;;;12.40;70.50;;;;;;5079041;28;20046;-76
2024/04/11 04:46:15;;;;;;;0.85;0.30;;;12.30;70.50;;;;;;5078886;28;20082;-76
2024/04/11 04:48:41;;;;;;;0.28;0.28;;;12.30;70.60;;;;;;5096459;28;20030;-76
2024/04/11 04:51:08;;;;;;;0.82;0.38;;;12.30;70.60;;;;;;5095394;28;20127;-76
2024/04/11 04:53:34;;;;;;;0.93;0.40;;;12.30;70.70;;;;;;5078729;28;20032;-77
2024/04/11 04:56:00;;;;;;;0.50;0.50;;;12.30;70.80;;;;;;5095972;28;20062;-76
2024/04/11 04:58:26;;;;;;;1.33;0.47;;;12.30;70.90;;;;;;5095443;28;20497;-76
2024/04/11 05:00:52;;;;;;;0.55;0.47;;;12.20;70.90;;;;;;5095633;28;20184;-76
2024/04/11 05:03:18;;;;;;;0.40;0.40;;;12.20;71.00;;;;;;5095726;28;20039;-76
2024/04/11 05:05:46;;;;;;;1.13;0.50;;;12.20;71.00;;;;;;5113546;28;20109;-76
2024/04/11 05:08:13;;;;;;;0.30;0.30;;;12.30;71.10;;;;;;5113654;28;20036;-75
2024/04/11 05:10:41;;;;;;;0.30;0.30;;;12.20;71.10;;;;;;5095154;28;20401;-76
2024/04/11 05:13:10;;;;;;;0.82;0.50;;;12.20;71.20;;;;;;5113389;28;20044;-78
2024/04/11 05:15:39;;;;;;;0.50;0.30;;;12.20;71.20;;;;;;5096413;28;20036;-78
2024/04/11 05:18:05;;;;;;;0.65;0.40;;;12.30;71.30;;;;;;5096128;28;20130;-76
2024/04/11 05:20:33;;;;;;;0.43;0.38;;;12.30;71.30;;;;;;5078561;28;20424;-77
2024/04/11 05:22:59;;;;;;;0.30;0.30;;;12.30;71.30;;;;;;5095237;28;20070;-77
2024/04/11 05:25:30;;;;;;;1.80;0.50;;;12.20;71.30;;;;;;5113463;28;20039;-77
2024/04/11 05:27:57;;;;;;;0.88;0.40;;;12.30;71.30;;;;;;5095744;28;20063;-78
2024/04/11 05:30:23;;;;;;;0.60;0.40;;;12.30;71.40;;;;;;5095430;28;20036;-78
2024/04/11 05:32:49;;;;;;;1.10;0.52;;;12.30;71.50;;;;;;5095387;28;20151;-77
2024/04/11 05:35:15;;;;;;;1.23;0.40;;;12.20;71.50;;;;;;5113459;28;20114;-76
2024/04/11 05:37:45;;;;;;;0.98;0.40;;;12.20;71.40;;;;;;5094718;28;20515;-74
2024/04/11 05:40:12;;;;;;;0.77;0.40;;;12.20;71.40;;;;;;5113451;28;20086;-75
2024/04/11 05:42:44;;;;;;;0.38;0.30;;;12.30;71.50;;;;;;5095473;28;20139;-75
2024/04/11 05:45:11;;;;;;;0.20;0.20;;;12.30;71.50;;;;;;5095886;28;20122;-75
2024/04/11 05:47:37;;;;;;;0.73;0.38;;;12.30;71.60;;;;;;5094648;28;20131;-75
2024/04/11 05:50:04;;;;;;;1.73;0.50;;;12.30;71.50;;;;;;5113623;28;20067;-75
2024/04/11 05:52:31;;;;;;;0.52;0.30;;;12.40;71.60;;;;;;5078522;28;20040;-75
2024/04/11 05:54:57;;;;;;;0.55;0.40;;;12.30;71.60;;;;;;5112747;28;20083;-75
2024/04/11 05:57:24;;;;;;;0.75;0.40;;;12.40;71.70;;;;;;5061117;28;20042;-75
2024/04/11 05:59:51;;;;;;;0.52;0.30;;;12.30;71.70;;;;;;5113230;28;20047;-76
2024/04/11 06:02:18;;;;;;;1.08;0.30;;;12.30;71.70;;;;;;5113054;28;20078;-76
2024/04/11 06:04:43;;;;;;;0.40;0.40;;;12.40;71.80;;;;;;5112883;28;20476;-76
2024/04/11 06:07:09;;;;;;;0.28;0.28;;;12.40;71.90;;;;;;5094603;28;20046;-75
2024/04/11 06:09:35;;;;;;;0.52;0.43;;;12.30;71.90;;;;;;5061406;28;20032;-76
2024/04/11 06:12:01;;;;;;;0.25;0.25;;;12.40;72.00;;;;;;5113218;28;20417;-76
2024/04/11 06:14:28;;;;;;;0.60;0.30;;;12.40;72.10;;;;;;5113071;28;20039;-76
2024/04/11 06:16:54;;;;;;;0.30;0.30;;;12.40;72.10;;;;;;5112008;28;20493;-76
2024/04/11 06:19:21;;;;;;;0.40;0.30;;;12.30;72.10;;;;;;5094508;28;20044;-75
2024/04/11 06:21:53;;;;;;;0.65;0.40;;;12.40;72.20;;;;;;5094526;28;20063;-75
2024/04/11 06:24:20;;;;;;;0.30;0.30;;;12.40;72.30;;;;;;5093853;28;20507;-75
2024/04/11 06:26:46;;;;;;;0.75;0.30;;;12.40;72.30;;;;;;5112602;28;20044;-75
2024/04/11 06:29:12;;;;;;;0.52;0.30;;;12.40;72.40;;;;;;5094717;28;20035;-76
2024/04/11 06:31:38;;;;;;;0.60;0.30;;;12.40;72.50;;;;;;5095320;28;20093;-75
2024/04/11 06:34:05;;;;;;;0.30;0.30;;;12.40;72.60;;;;;;5095226;28;20043;-77
2024/04/11 06:36:33;;;;;;;0.45;0.30;;;12.40;72.70;;;;;;5080072;28;20504;-76
2024/04/11 06:39:01;;;;;;;1.55;0.38;;;12.30;73.40;;;;;;5078468;28;20091;-77
2024/04/11 06:41:27;;;;;;;0.40;0.30;;;12.30;73.10;;;;;;5098007;28;20040;-76
2024/04/11 06:43:53;;;;;;;1.45;0.30;;;12.30;73.30;;;;;;5114781;28;20044;-77
2024/04/11 06:46:19;;;;;;;0.75;0.40;;;12.20;73.50;;;;;;5099407;28;20046;-78
2024/04/11 06:48:46;;;;;;;1.05;0.40;;;12.20;73.60;;;;;;5097604;28;20046;-77
2024/04/11 06:51:15;;;;;;;0.60;0.30;;;12.20;73.80;;;;;;5096970;28;20039;-76
2024/04/11 06:53:45;;;;;;;0.30;0.30;;;12.20;73.90;;;;;;5064397;28;20385;-77
2024/04/11 06:56:11;;;;;;;0.30;0.30;;;12.10;74.00;;;;;;5095333;28;20039;-78
2024/04/11 06:58:38;;;;;;;0.30;0.30;;;12.20;74.10;;;;;;5095633;28;20119;-76
2024/04/11 07:01:08;;;;;;;0.30;0.30;;;12.10;74.20;;;;;;5095558;28;20070;-76
2024/04/11 07:03:39;;;;;;;0.43;0.30;;;12.10;74.20;;;;;;5097449;28;20032;-77
2024/04/11 07:06:22;;;;;;;0.28;0.28;;;12.10;74.30;;;;;;5116144;28;20293;-76
2024/04/11 07:08:49;;;;;;;0.20;0.20;;;12.10;74.30;;;;;;5099755;28;20053;-77
2024/04/11 07:14:01;;;;;;;0.70;0.30;;;12.10;74.60;;;;;;5097098;28;20055;-76
2024/04/11 07:16:29;;;;;;;1.80;0.40;;;12.00;74.60;;;;;;5094960;28;20047;-76
2024/04/11 07:18:55;;;;;;;0.45;0.38;;;12.10;74.70;;;;;;5115231;28;20036;-76
2024/04/11 07:21:25;;;;;;;0.85;0.40;;;12.10;74.80;;;;;;5094826;28;20043;-77
2024/04/11 07:23:54;;;;;;;0.40;0.40;;;12.10;74.90;;;;;;5095327;28;20131;-77
2024/04/11 07:26:22;;;;;;;1.17;0.32;;;12.00;75.00;;;;;;5095524;28;20043;-76
2024/04/11 07:28:48;;;;;;;1.88;0.50;;;12.00;75.10;;;;;;5114792;28;20032;-78
2024/04/11 07:31:14;;;;;;;0.57;0.35;;;12.00;75.20;;;;;;5098032;28;20074;-76
2024/04/11 07:33:41;;;;;;;0.30;0.30;;;12.00;75.30;;;;;;5099145;28;20044;-76
2024/04/11 07:36:07;;;;;;;0.90;0.45;;;12.10;75.50;;;;;;5098555;28;20039;-76
2024/04/11 07:38:34;;;;;;;0.38;0.30;;;12.00;75.50;;;;;;5101392;28;20039;-77
2024/04/11 07:41:16;;;;;;;0.80;0.35;;;12.00;75.60;;;;;;5118194;28;20078;-77
2024/04/11 07:43:47;;;;;;;0.68;0.30;;;11.90;75.70;;;;;;5097968;28;20039;-76
2024/04/11 07:46:14;;;;;;;0.35;0.30;;;11.90;76.00;;;;;;5096162;28;20042;-75
2024/04/11 07:48:47;;;;;;;0.75;0.40;;;11.90;76.10;;;;;;5096954;28;20039;-76
2024/04/11 07:51:14;;;;;;;0.50;0.50;;;11.80;76.20;;;;;;5064481;28;20050;-75
2024/04/11 07:53:41;;;;;;;0.30;0.30;;;11.80;76.40;;;;;;5097300;28;20039;-76
2024/04/11 07:56:09;;;;;;;0.45;0.35;;;11.80;76.60;;;;;;5097153;28;20402;-76
2024/04/11 07:58:35;;;;;;;0.50;0.50;;;11.80;76.70;;;;;;5080688;28;20050;-75
2024/04/11 08:01:02;;;;;;;0.55;0.40;;;11.80;77.40;;;;;;5114725;28;20032;-75
2024/04/11 08:03:28;;;;;;;0.55;0.30;;;11.80;76.90;;;;;;5096931;28;20131;-76
2024/04/11 08:05:54;;;;;;;0.63;0.30;;;11.80;76.90;;;;;;5096603;28;20496;-76
2024/04/11 08:08:20;;;;;;;0.55;0.40;;;11.80;77.00;;;;;;5096552;28;20054;-76
2024/04/11 08:10:48;;;;;;;0.68;0.40;;;11.80;77.00;;;;;;5097548;28;20063;-76
2024/04/11 08:13:13;;;;;;;0.43;0.38;;;11.80;77.00;;;;;;5079918;28;20039;-76
2024/04/11 08:15:40;;;;;;;0.45;0.40;;;11.90;77.20;;;;;;5096134;28;20393;-76
2024/04/11 08:18:08;;;;;;;0.40;0.40;;;11.80;77.20;;;;;;5096017;28;20050;-76
2024/04/11 08:20:34;;;;;;;0.47;0.35;;;11.90;77.30;;;;;;5114236;28;20039;-77
2024/04/11 08:23:01;;;;;;;0.73;0.30;;;11.90;77.30;;;;;;5079521;28;20036;-76
2024/04/11 08:25:26;;;;;;;1.08;0.50;;;11.90;77.40;;;;;;5079984;28;20040;-76
2024/04/11 08:27:55;;;;;;;1.50;0.40;;;12.00;78.10;;;;;;5096748;28;20473;-76
2024/04/11 08:30:20;;;;;;;1.25;0.50;;;12.00;77.50;;;;;;5079924;28;20043;-77
2024/04/11 08:32:46;;;;;;;0.80;0.40;;;12.00;77.40;;;;;;5114036;28;20493;-75
2024/04/11 08:35:17;;;;;;;0.63;0.40;;;12.10;77.40;;;;;;5096274;28;20039;-75
2024/04/11 08:37:46;;;;;;;0.40;0.40;;;12.10;77.40;;;;;;5096047;28;20134;-76
2024/04/11 08:40:13;;;;;;;0.50;0.40;;;12.10;77.50;;;;;;5095617;28;20552;-76
2024/04/11 08:42:42;;;;;;;0.40;0.40;;;12.10;77.60;;;;;;5095645;28;20104;-76
2024/04/11 08:45:08;;;;;;;1.30;0.50;;;12.10;77.60;;;;;;5095361;28;20044;-76
2024/04/11 08:47:35;;;;;;;0.52;0.50;;;12.20;77.60;;;;;;5114420;28;20042;-76
2024/04/11 08:50:05;;;;;;;0.80;0.50;;;12.30;77.70;;;;;;5096922;28;20056;-76
2024/04/11 08:52:34;;;;;;;1.08;0.50;;;12.20;77.60;;;;;;5080125;28;20067;-76
2024/04/11 08:55:01;;;;;;;0.32;0.30;;;12.30;77.70;;;;;;5113837;28;20202;-76
2024/04/11 08:57:28;;;;;;;0.80;0.60;;;12.40;77.70;;;;;;5095714;28;20065;-78
2024/04/11 08:59:55;;;;;;;0.40;0.40;;;12.50;77.60;;;;;;5114287;28;20093;-76
2024/04/11 09:02:22;;;;;;;0.50;0.43;;;12.50;77.40;;;;;;5095720;28;20069;-76
2024/04/11 09:04:47;;;;;;;1.00;0.40;;;12.60;77.20;;;;;;5078859;28;20043;-76
2024/04/11 09:07:23;;;;;;;1.77;0.68;;;12.70;77.30;;;;;;5095649;28;20040;-77
2024/04/11 09:09:50;;;;;;;2.20;0.50;;;12.70;77.30;;;;;;5114047;28;20516;-75
2024/04/11 09:12:17;;;;;;;1.25;0.50;;;12.80;77.40;;;;;;5079225;28;20338;-77
2024/04/11 09:14:44;;;;;;;0.75;0.40;;;12.70;77.40;;;;;;5079385;28;20039;-77
2024/04/11 09:17:13;;;;;;;0.70;0.47;;;12.70;77.60;;;;;;5095167;28;20131;-76
2024/04/11 09:19:41;;;;;;;0.63;0.50;;;12.70;77.70;;;;;;5063192;28;20050;-78
2024/04/11 09:22:12;;;;;;;0.40;0.40;;;12.70;77.70;;;;;;5095624;28;20487;-77
2024/04/11 09:24:41;;;;;;;0.45;0.40;;;12.70;77.90;;;;;;5093501;28;20138;-78
2024/04/11 09:27:09;;;;;;;0.32;0.32;;;12.70;77.90;;;;;;5094157;28;20505;-76
2024/04/11 09:29:35;;;;;;;0.45;0.40;;;12.70;77.90;;;;;;5113708;28;20557;-76
2024/04/11 09:32:04;;;;;;;0.30;0.30;;;12.80;78.00;;;;;;5113698;28;20039;-77
2024/04/11 09:34:30;;;;;;;0.93;0.55;;;12.80;78.00;;;;;;5113572;28;20043;-77
2024/04/11 09:37:04;;;;;;;0.60;0.40;;;12.80;78.10;;;;;;5078866;28;20096;-78
2024/04/11 09:39:56;;;;;;;0.63;0.47;;;12.90;78.10;;;;;;5079389;28;20389;-78
2024/04/11 09:42:26;;;;;;;1.55;0.57;;;13.00;78.20;;;;;;5080874;28;20421;-77
2024/04/11 09:44:53;;;;;;;1.23;0.55;;;13.00;78.10;;;;;;5079012;28;20075;-78
2024/04/11 09:47:26;;;;;;;0.85;0.70;;;13.00;78.10;;;;;;5097077;28;20044;-77
2024/04/11 09:49:59;;;;;;;1.27;0.55;;;13.10;78.20;;;;;;5095562;28;20040;-76
2024/04/11 09:52:27;;;;;;;1.13;0.50;;;13.10;78.20;;;;;;5096677;28;20044;-77
2024/04/11 09:54:55;;;;;;;0.65;0.60;;;13.10;78.20;;;;;;5095889;28;20536;-76
2024/04/11 09:57:24;;;;;;;0.60;0.40;;;13.10;78.20;;;;;;5113255;28;20040;-77
2024/04/11 09:59:50;;;;;;;0.82;0.60;;;13.20;78.20;;;;;;5114134;28;20032;-77
2024/04/11 10:02:20;;;;;;;1.05;0.75;;;13.30;78.30;;;;;;5078041;28;20035;-78
2024/04/11 10:04:47;;;;;;;1.02;0.57;;;13.30;78.40;;;;;;5077948;28;20047;-77
2024/04/11 10:07:19;;;;;;;0.90;0.60;;;13.30;78.40;;;;;;5112680;28;20040;-77
2024/04/11 10:09:53;;;;;;;1.85;0.77;;;13.30;78.50;;;;;;5078353;28;20084;-76
2024/04/11 10:12:20;;;;;;;1.23;0.80;;;13.30;78.60;;;;;;5112748;28;20395;-77
2024/04/11 10:14:51;;;;;;;0.85;0.70;;;13.40;78.70;;;;;;5112725;28;20039;-77
2024/04/11 10:17:17;;;;;;;1.63;0.82;;;13.40;78.70;;;;;;5077926;28;20062;-77
2024/04/11 10:19:44;;;;;;;1.50;0.68;;;13.40;78.70;;;;;;5112659;28;20035;-77
2024/04/11 10:22:24;;;;;;;0.93;0.75;;;13.50;78.80;;;;;;5112679;28;20131;-77
2024/04/11 10:24:50;;;;;;;0.85;0.70;;;13.50;78.90;;;;;;5112379;28;20046;-77
2024/04/11 10:27:19;;;;;;;1.25;0.57;;;13.50;79.00;;;;;;5094122;28;20431;-78
2024/04/11 10:29:47;;;;;;;0.70;0.70;;;13.50;79.10;;;;;;5094010;28;20040;-77
2024/04/11 10:32:13;;;;;;;1.15;0.63;;;13.50;79.20;;;;;;5077556;28;20039;-77
2024/04/11 10:34:47;;;;;;;0.80;0.60;;;13.50;79.30;;;;;;5094123;28;20135;-77
2024/04/11 10:37:23;;;;;;;0.90;0.80;;;13.60;79.40;;;;;;5095704;28;20042;-77
2024/04/11 10:39:54;;;;;;;0.90;0.70;;;13.60;79.50;;;;;;5062251;28;20378;-77
2024/04/11 10:42:27;;;;;;;1.00;0.82;;;13.60;79.50;;;;;;5112854;28;20035;-78
2024/04/11 10:44:56;;;;;;;1.33;0.90;;;13.60;79.60;;;;;;5093693;28;20405;-77
2024/04/11 10:47:25;;;;;;;0.98;0.80;;;13.60;79.70;;;;;;5061086;28;20126;-77
2024/04/11 10:49:51;;;;;;;1.05;0.80;;;13.60;79.80;;;;;;5112013;28;20044;-77
2024/04/11 10:52:21;;;;;;;0.80;0.70;;;13.60;79.90;;;;;;5077242;28;20436;-77
2024/04/11 10:54:50;;;;;;;1.45;1.10;;;13.60;80.00;;;;;;5112403;28;20122;-76
2024/04/11 10:57:16;;;;;;;1.80;1.00;;;13.60;80.10;;;;;;5077649;28;20047;-78
2024/04/11 10:59:53;;;;;;;1.48;0.70;;;13.60;80.20;;;;;;5076958;28;20051;-77
2024/04/11 11:02:22;;;;;;;1.85;1.08;;;13.60;80.40;;;;;;5112110;28;20096;-77
2024/04/11 11:04:51;;;;;;;1.35;0.70;;;13.60;80.60;;;;;;5095824;28;20039;-77
2024/04/11 11:07:21;;;;;;;1.17;1.00;;;13.60;80.70;;;;;;5080748;28;20504;-76
2024/04/11 11:09:51;;;;;;;2.22;1.00;;;13.60;80.80;;;;;;5080595;28;20481;-76
2024/04/11 11:12:19;;;;;;;1.80;0.90;;;13.60;81.10;;;;;;5081288;28;20043;-76
2024/04/11 11:14:46;;;;;;;1.83;1.30;;;13.50;81.20;;;;;;5097821;28;20122;-76
2024/04/11 11:17:17;;;;;;;1.45;0.93;;;13.50;81.40;;;;;;5115503;28;20048;-77
2024/04/11 11:19:45;;;;;;;1.80;1.10;;;13.50;81.50;;;;;;5097886;28;20092;-77
2024/04/11 11:22:11;;;;;;;1.17;1.02;;;13.40;82.20;;;;;;5115511;28;20307;-76
2024/04/11 11:24:37;;;;;;;1.63;1.02;;;13.40;81.70;;;;;;5115535;28;20044;-77
2024/04/11 11:27:05;;;;;;;1.15;0.93;;;13.40;81.80;;;;;;5097416;28;20028;-76
2024/04/11 11:29:31;;;;;;;1.77;1.10;;;13.50;81.90;;;;;;5096983;28;20070;-77
2024/04/11 11:32:02;;;;;;;2.13;0.98;;;13.50;81.90;;;;;;5115629;28;20044;-76
2024/04/11 11:34:30;;;;;;;1.38;1.02;;;13.60;82.00;;;;;;5081170;28;20039;-76
2024/04/11 11:37:01;;;;;;;1.30;1.13;;;13.60;82.10;;;;;;5080293;28;20043;-77
2024/04/11 11:39:28;;;;;;;;;;;13.60;82.10;;;;;;5098513;28;20041;-77
2024/04/11 11:42:08;;;;;;;1.08;0.98;;;13.60;81.90;;;;;;5115109;28;19912;-77
2024/04/11 11:44:45;;;;;;;1.27;0.90;;;13.70;81.90;;;;;;5083838;28;20481;-77
2024/04/11 11:47:11;;;;;;;0.80;0.80;;;13.80;81.90;;;;;;5098278;28;20100;-77
2024/04/11 11:49:37;;;;;;;1.50;1.17;;;13.90;81.80;;;;;;5096443;28;20490;-77
2024/04/11 11:52:04;;;;;;;1.00;0.90;;;13.80;81.70;;;;;;5114751;28;20050;-77
2024/04/11 11:54:34;;;;;;;1.40;1.00;;;13.90;81.80;;;;;;5114462;28;20058;-77
2024/04/11 11:59:47;;;;;;;1.35;1.15;;;14.00;81.90;;;;;;5114493;28;20057;-77
2024/04/11 12:02:14;;;;;;;2.10;1.13;;;14.10;82.00;;;;;;5114905;28;20050;-76
2024/04/11 12:04:44;;;;;;;1.40;1.17;;;14.00;81.90;;;;;;5096172;28;20051;-77
2024/04/11 12:07:12;;;;;;;1.70;1.10;;;14.00;81.90;;;;;;5114988;28;20058;-77
2024/04/11 12:09:43;;;;;;;1.23;1.05;;;14.10;82.10;;;;;;5079317;28;20422;-76
2024/04/11 12:12:30;;;;;;;1.75;1.33;;;14.10;82.10;;;;;;5096816;28;20044;-76
2024/04/11 12:14:55;;;;;;;2.20;1.38;;;14.20;82.20;;;;;;5113332;28;20140;-77
2024/04/11 12:17:23;;;;;;;2.05;1.20;;;14.10;82.30;;;;;;5114406;28;20043;-77
2024/04/11 12:19:51;;;;;;;1.83;1.27;;;14.20;82.40;;;;;;5114396;28;20040;-76
2024/04/11 12:22:18;;;;;;;1.70;1.40;;;14.20;82.30;;;;;;5096232;28;20061;-77
2024/04/11 12:24:45;;;;;;;1.98;1.60;;;14.30;82.30;;;;;;5114351;28;20032;-77
2024/04/11 12:27:15;;;;;;;1.77;1.40;;;14.20;82.40;;;;;;5114097;28;20050;-77
2024/04/11 12:29:42;;;;;;;1.80;1.40;;;14.20;82.50;;;;;;5094617;28;20044;-76
2024/04/11 12:32:08;;;;;;;1.52;1.20;;;14.30;82.70;;;;;;5079773;28;20046;-77
2024/04/11 12:34:37;;;;;;;1.40;1.20;;;14.30;82.70;;;;;;5114768;28;20480;-77
2024/04/11 12:37:24;;;;;;;2.13;1.50;;;14.30;82.70;;;;;;5095768;28;20048;-77
2024/04/11 12:39:56;;;;;;;1.55;1.00;;;14.30;82.80;;;;;;5084284;28;20353;-77
2024/04/11 12:42:24;;;;;;;1.73;1.45;;;14.30;82.80;;;;;;5096804;28;20044;-77
2024/04/11 12:44:55;;;;;;;1.60;1.20;;;14.40;82.90;;;;;;5114220;28;20393;-77
2024/04/11 12:47:38;;;;;;;1.33;1.23;;;14.50;82.70;;;;;;5113600;28;20036;-77
2024/04/11 12:50:12;;;;;;;2.15;1.40;;;14.60;82.70;;;;;;5097835;28;20043;-76
2024/04/11 12:52:44;;;;;;;2.53;1.60;;;14.60;82.70;;;;;;5114166;28;20067;-77
2024/04/11 12:55:11;;;;;;;1.52;1.25;;;14.60;82.70;;;;;;5079534;28;20039;-77
2024/04/11 12:57:37;;;;;;;2.75;1.67;;;14.60;82.70;;;;;;5096773;28;20160;-78